createdAt,value
2016-06-14T00:01:02.479Z,999.77
2016-06-14T00:02:02.372Z,999.76
2016-06-14T00:03:06.484Z,999.75
2016-06-14T00:05:21.896Z,999.74
2016-06-14T00:06:21.775Z,999.74
2016-06-14T00:07:41.012Z,999.74
2016-06-14T00:08:31.250Z,999.78
2016-06-14T00:09:50.675Z,999.73
2016-06-14T00:10:44.240Z,999.75
2016-06-14T00:11:59.482Z,999.78
2016-06-14T00:12:59.515Z,999.78
2016-06-14T00:13:59.533Z,999.8
2016-06-14T00:14:59.553Z,999.8
2016-06-14T00:15:59.586Z,999.79
2016-06-14T00:16:59.606Z,999.78
2016-06-14T00:18:12.359Z,999.75
2016-06-14T00:19:25.315Z,999.75
2016-06-14T00:19:59.662Z,999.76
2016-06-14T00:22:14.918Z,999.77
2016-06-14T00:23:14.952Z,999.74
2016-06-14T00:24:40.377Z,999.79
2016-06-14T00:25:24.458Z,999.8
2016-06-14T00:26:24.477Z,999.79
2016-06-14T00:27:40.370Z,999.78
2016-06-14T00:28:27.655Z,999.77
2016-06-14T00:29:46.893Z,999.75
2016-06-14T00:30:56.582Z,999.77
2016-06-14T00:31:50.148Z,999.75
2016-06-14T00:32:34.121Z,999.78
2016-06-14T00:33:49.358Z,999.73
2016-06-14T00:34:49.376Z,999.75
2016-06-14T00:35:49.411Z,999.71
2016-06-14T00:37:02.167Z,999.71
2016-06-14T00:38:02.186Z,999.68
2016-06-14T00:39:08.673Z,999.7
2016-06-14T00:40:15.177Z,999.68
2016-06-14T00:40:49.505Z,999.66
2016-06-14T00:41:49.538Z,999.69
2016-06-14T00:42:59.264Z,999.71
2016-06-14T00:43:59.267Z,999.68
2016-06-14T00:45:12.035Z,999.69
2016-06-14T00:45:59.336Z,999.71
2016-06-14T00:47:18.541Z,999.72
2016-06-14T00:48:12.107Z,999.67
2016-06-14T00:48:59.376Z,999.68
2016-06-14T00:49:59.410Z,999.66
2016-06-14T00:51:12.163Z,999.66
2016-06-14T00:53:25.138Z,999.68
2016-06-14T00:53:59.486Z,999.68
2016-06-14T00:54:59.503Z,999.63
2016-06-14T00:55:59.538Z,999.65
2016-06-14T00:56:59.557Z,999.6
2016-06-14T00:57:59.575Z,999.6
2016-06-14T00:58:59.594Z,999.61
2016-06-14T01:00:01.035Z,999.61
2016-06-14T01:00:59.632Z,999.6
2016-06-14T01:02:12.385Z,999.59
2016-06-14T01:03:12.403Z,999.6
2016-06-14T01:03:59.703Z,999.59
2016-06-14T01:04:59.723Z,999.59
2016-06-14T01:05:59.740Z,999.57
2016-06-14T01:06:59.760Z,999.6
2016-06-14T01:07:59.778Z,999.62
2016-06-14T01:08:59.812Z,999.59
2016-06-14T01:09:59.831Z,999.61
2016-06-14T01:10:59.850Z,999.59
2016-06-14T01:11:59.868Z,999.58
2016-06-14T01:14:09.562Z,999.59
2016-06-14T01:16:24.864Z,999.62
2016-06-14T01:17:24.868Z,999.6
2016-06-14T01:18:24.981Z,999.62
2016-06-14T01:19:44.108Z,999.62
2016-06-14T01:20:24.986Z,999.61
2016-06-14T01:21:24.958Z,999.59
2016-06-14T01:22:44.181Z,999.59
2016-06-14T01:23:28.027Z,999.57
2016-06-14T01:24:28.014Z,999.58
2016-06-14T01:25:28.049Z,999.58
2016-06-14T01:26:28.068Z,999.58
2016-06-14T01:27:28.087Z,999.57
2016-06-14T01:28:29.527Z,999.58
2016-06-14T01:29:28.155Z,999.59
2016-06-14T01:30:28.158Z,999.61
2016-06-14T01:31:28.177Z,999.57
2016-06-14T01:32:28.195Z,999.58
2016-06-14T01:33:28.214Z,999.53
2016-06-14T01:34:47.436Z,999.57
2016-06-14T01:35:28.251Z,999.57
2016-06-14T01:36:28.271Z,999.53
2016-06-14T01:37:43.507Z,999.54
2016-06-14T01:38:43.526Z,999.55
2016-06-14T01:39:43.545Z,999.52
2016-06-14T01:40:43.580Z,999.51
2016-06-14T01:41:43.597Z,999.48
2016-06-14T01:42:56.351Z,999.49
2016-06-14T01:44:02.857Z,999.5
2016-06-14T01:44:47.029Z,999.47
2016-06-14T01:45:47.048Z,999.49
2016-06-14T01:46:47.066Z,999.5
2016-06-14T01:47:47.086Z,999.46
2016-06-14T01:48:47.119Z,999.44
2016-06-14T01:49:47.122Z,999.47
2016-06-14T01:51:06.364Z,999.47
2016-06-14T01:51:47.176Z,999.45
2016-06-14T01:53:12.870Z,999.46
2016-06-14T01:53:56.823Z,999.48
2016-06-14T01:54:56.825Z,999.47
2016-06-14T01:56:00.004Z,999.48
2016-06-14T01:57:00.038Z,999.44
2016-06-14T01:58:00.041Z,999.46
2016-06-14T01:59:00.060Z,999.46
2016-06-14T02:00:00.094Z,999.42
2016-06-14T02:01:00.112Z,999.41
2016-06-14T02:02:00.131Z,999.4
2016-06-14T02:03:00.150Z,999.42
2016-06-14T02:04:00.169Z,999.4
2016-06-14T02:05:19.390Z,999.39
2016-06-14T02:06:00.207Z,999.35
2016-06-14T02:07:00.225Z,999.38
2016-06-14T02:08:00.259Z,999.41
2016-06-14T02:09:00.278Z,999.37
2016-06-14T02:10:00.500Z,999.39
2016-06-14T02:11:00.315Z,999.39
2016-06-14T02:12:00.334Z,999.37
2016-06-14T02:13:00.368Z,999.39
2016-06-14T02:14:00.372Z,999.38
2016-06-14T02:15:00.405Z,999.36
2016-06-14T02:16:00.424Z,999.36
2016-06-14T02:17:00.443Z,999.35
2016-06-14T02:18:19.665Z,999.39
2016-06-14T02:19:03.527Z,999.41
2016-06-14T02:20:00.514Z,999.35
2016-06-14T02:21:00.534Z,999.35
2016-06-14T02:22:00.551Z,999.35
2016-06-14T02:23:00.571Z,999.35
2016-06-14T02:24:26.277Z,999.32
2016-06-14T02:25:10.233Z,999.31
2016-06-14T02:26:10.252Z,999.33
2016-06-14T02:27:10.255Z,999.31
2016-06-14T02:28:23.024Z,999.27
2016-06-14T02:29:11.714Z,999.29
2016-06-14T02:30:35.998Z,999.31
2016-06-14T02:31:19.798Z,999.3
2016-06-14T02:32:19.832Z,999.31
2016-06-14T02:33:19.851Z,999.27
2016-06-14T02:34:19.871Z,999.32
2016-06-14T02:35:19.905Z,999.32
2016-06-14T02:36:19.907Z,999.33
2016-06-14T02:37:21.348Z,999.34
2016-06-14T02:38:19.961Z,999.32
2016-06-14T02:39:19.964Z,999.32
2016-06-14T02:40:19.998Z,999.29
2016-06-14T02:41:20.017Z,999.27
2016-06-14T02:42:20.036Z,999.25
2016-06-14T02:43:20.070Z,999.26
2016-06-14T02:44:20.089Z,999.27
2016-06-14T02:45:20.108Z,999.25
2016-06-14T02:46:21.547Z,999.25
2016-06-14T02:47:20.145Z,999.24
2016-06-14T02:48:20.164Z,999.24
2016-06-14T02:49:45.870Z,999.24
2016-06-14T02:50:21.623Z,999.23
2016-06-14T02:51:20.235Z,999.25
2016-06-14T02:52:20.254Z,999.24
2016-06-14T02:53:33.022Z,999.24
2016-06-14T02:54:20.307Z,999.23
2016-06-14T02:55:20.325Z,999.25
2016-06-14T02:56:20.345Z,999.24
2016-06-14T02:57:20.363Z,999.23
2016-06-14T02:58:20.381Z,999.23
2016-06-14T03:00:40.247Z,999.23
2016-06-14T03:01:20.438Z,999.26
2016-06-14T03:02:20.472Z,999.27
2016-06-14T03:03:20.491Z,999.25
2016-06-14T03:04:20.510Z,999.25
2016-06-14T03:05:20.544Z,999.21
2016-06-14T03:06:20.547Z,999.23
2016-06-14T03:07:20.566Z,999.24
2016-06-14T03:08:20.600Z,999.18
2016-06-14T03:09:20.618Z,999.2
2016-06-14T03:10:20.653Z,999.21
2016-06-14T03:11:20.671Z,999.15
2016-06-14T03:12:20.691Z,999.16
2016-06-14T03:13:30.319Z,999.12
2016-06-14T03:14:30.336Z,999.15
2016-06-14T03:15:30.793Z,999.14
2016-06-14T03:16:30.390Z,999.13
2016-06-14T03:17:30.393Z,999.13
2016-06-14T03:18:30.412Z,999.12
2016-06-14T03:19:30.446Z,999.12
2016-06-14T03:20:30.480Z,999.12
2016-06-14T03:21:30.499Z,999.11
2016-06-14T03:22:49.721Z,999.1
2016-06-14T03:23:43.271Z,999.11
2016-06-14T03:24:30.556Z,999.12
2016-06-14T03:25:56.245Z,999.08
2016-06-14T03:26:40.311Z,999.11
2016-06-14T03:27:40.331Z,999.1
2016-06-14T03:28:40.365Z,999.08
2016-06-14T03:29:41.789Z,999.08
2016-06-14T03:30:41.824Z,999.08
2016-06-14T03:31:43.451Z,999.09
2016-06-14T03:32:40.439Z,999.08
2016-06-14T03:33:40.458Z,999.06
2016-06-14T03:34:59.695Z,999.04
2016-06-14T03:35:43.651Z,999.07
2016-06-14T03:36:53.295Z,999.11
2016-06-14T03:37:53.314Z,999.09
2016-06-14T03:39:12.555Z,999.14
2016-06-14T03:39:56.524Z,999.11
2016-06-14T03:41:22.216Z,999.1
2016-06-14T03:42:15.766Z,999.09
2016-06-14T03:43:56.708Z,999.13
2016-06-14T03:44:56.633Z,999.09
2016-06-14T03:45:56.636Z,999.13
2016-06-14T03:47:12.017Z,999.11
2016-06-14T03:48:12.035Z,999.09
2016-06-14T03:49:12.054Z,999.16
2016-06-14T03:50:12.072Z,999.13
2016-06-14T03:51:12.107Z,999.16
2016-06-14T03:52:31.328Z,999.15
2016-06-14T03:53:15.300Z,999.16
2016-06-14T03:54:15.320Z,999.19
2016-06-14T03:55:56.245Z,999.15
2016-06-14T03:56:56.247Z,999.14
2016-06-14T03:57:56.282Z,999.16
2016-06-14T03:59:09.038Z,999.15
2016-06-14T03:59:56.475Z,999.16
2016-06-14T04:02:09.016Z,999.16
2016-06-14T04:03:34.691Z,999.17
2016-06-14T04:04:18.648Z,999.14
2016-06-14T04:05:18.665Z,999.15
2016-06-14T04:06:18.684Z,999.16
2016-06-14T04:08:59.472Z,999.17
2016-06-14T04:09:33.819Z,999.19
2016-06-14T04:11:49.091Z,999.15
2016-06-14T04:12:49.109Z,999.17
2016-06-14T04:13:52.159Z,999.16
2016-06-14T04:14:49.146Z,999.15
2016-06-14T04:16:01.978Z,999.16
2016-06-14T04:16:49.199Z,999.15
2016-06-14T04:17:49.218Z,999.16
2016-06-14T04:18:52.252Z,999.15
2016-06-14T04:19:52.256Z,999.18
2016-06-14T04:20:52.290Z,999.17
2016-06-14T04:21:53.714Z,999.17
2016-06-14T04:23:05.062Z,999.18
2016-06-14T04:24:05.080Z,999.19
2016-06-14T04:24:52.365Z,999.22
2016-06-14T04:25:52.384Z,999.2
2016-06-14T04:26:52.418Z,999.22
2016-06-14T04:27:52.436Z,999.21
2016-06-14T04:28:52.456Z,999.26
2016-06-14T04:29:52.474Z,999.27
2016-06-14T04:31:05.871Z,999.25
2016-06-14T04:32:52.609Z,999.23
2016-06-14T04:33:52.579Z,999.27
2016-06-14T04:35:11.805Z,999.25
2016-06-14T04:36:08.526Z,999.23
2016-06-14T04:37:08.545Z,999.24
2016-06-14T04:38:08.564Z,999.28
2016-06-14T04:39:08.583Z,999.27
2016-06-14T04:40:08.617Z,999.27
2016-06-14T04:41:34.308Z,999.24
2016-06-14T04:42:18.357Z,999.23
2016-06-14T04:43:18.376Z,999.21
2016-06-14T04:44:18.395Z,999.21
2016-06-14T04:45:31.210Z,999.2
2016-06-14T04:46:18.448Z,999.2
2016-06-14T04:47:44.139Z,999.2
2016-06-14T04:48:19.908Z,999.21
2016-06-14T04:49:18.519Z,999.21
2016-06-14T04:50:36.976Z,999.21
2016-06-14T04:51:36.995Z,999.2
2016-06-14T04:52:37.013Z,999.21
2016-06-14T04:53:37.141Z,999.24
2016-06-14T04:54:37.019Z,999.22
2016-06-14T04:55:46.507Z,999.23
2016-06-14T04:56:46.510Z,999.24
2016-06-14T04:57:46.545Z,999.22
2016-06-14T04:58:46.563Z,999.23
2016-06-14T04:59:46.597Z,999.24
2016-06-14T05:00:47.241Z,999.25
2016-06-14T05:01:46.682Z,999.24
2016-06-14T05:02:46.654Z,999.22
2016-06-14T05:03:46.672Z,999.27
2016-06-14T05:04:46.707Z,999.24
2016-06-14T05:06:56.369Z,999.25
2016-06-14T05:08:59.562Z,999.26
2016-06-14T05:09:59.581Z,999.27
2016-06-14T05:10:59.600Z,999.3
2016-06-14T05:12:01.119Z,999.33
2016-06-14T05:13:01.060Z,999.32
2016-06-14T05:13:59.672Z,999.34
2016-06-14T05:14:59.691Z,999.32
2016-06-14T05:15:59.725Z,999.29
2016-06-14T05:16:59.744Z,999.32
2016-06-14T05:17:59.762Z,999.34
2016-06-14T05:18:59.781Z,999.34
2016-06-14T05:20:01.221Z,999.35
2016-06-14T05:20:59.834Z,999.31
2016-06-14T05:21:59.852Z,999.3
2016-06-14T05:23:28.655Z,999.32
2016-06-14T05:24:28.691Z,999.3
2016-06-14T05:25:28.694Z,999.28
2016-06-14T05:26:41.462Z,999.29
2016-06-14T05:27:28.745Z,999.32
2016-06-14T05:28:28.765Z,999.27
2016-06-14T05:29:28.784Z,999.31
2016-06-14T05:30:42.084Z,999.32
2016-06-14T05:31:54.507Z,999.27
2016-06-14T05:32:38.465Z,999.31
2016-06-14T05:33:38.483Z,999.28
2016-06-14T05:34:38.502Z,999.33
2016-06-14T05:36:04.208Z,999.31
2016-06-14T05:36:48.306Z,999.33
2016-06-14T05:38:13.999Z,999.33
2016-06-14T05:38:57.968Z,999.33
2016-06-14T05:39:58.048Z,999.3
2016-06-14T05:41:17.227Z,999.3
2016-06-14T05:41:58.039Z,999.32
2016-06-14T05:42:58.058Z,999.33
2016-06-14T05:44:17.298Z,999.33
2016-06-14T05:44:58.127Z,999.32
2016-06-14T05:45:58.130Z,999.32
2016-06-14T05:46:58.148Z,999.29
2016-06-14T05:47:58.182Z,999.35
2016-06-14T05:48:58.201Z,999.34
2016-06-14T05:49:58.221Z,999.31
2016-06-14T05:50:58.238Z,999.32
2016-06-14T05:52:01.305Z,999.31
2016-06-14T05:52:58.292Z,999.31
2016-06-14T05:53:58.311Z,999.28
2016-06-14T05:54:58.344Z,999.28
2016-06-14T05:55:58.364Z,999.26
2016-06-14T05:56:58.398Z,999.29
2016-06-14T05:57:58.401Z,999.31
2016-06-14T05:58:58.451Z,999.34
2016-06-14T05:59:58.454Z,999.3
2016-06-14T06:00:58.472Z,999.32
2016-06-14T06:01:58.491Z,999.29
2016-06-14T06:04:11.295Z,999.32
2016-06-14T06:04:58.564Z,999.29
2016-06-14T06:06:24.273Z,999.26
2016-06-14T06:07:08.288Z,999.29
2016-06-14T06:08:08.307Z,999.32
2016-06-14T06:09:08.341Z,999.32
2016-06-14T06:10:11.391Z,999.29
2016-06-14T06:11:08.378Z,999.26
2016-06-14T06:12:14.678Z,999.31
2016-06-14T06:13:17.887Z,999.28
2016-06-14T06:14:17.906Z,999.27
2016-06-14T06:16:33.335Z,999.29
2016-06-14T06:17:33.353Z,999.25
2016-06-14T06:18:33.372Z,999.28
2016-06-14T06:19:33.484Z,999.34
2016-06-14T06:20:33.408Z,999.32
2016-06-14T06:21:33.491Z,999.35
2016-06-14T06:22:36.494Z,999.3
2016-06-14T06:23:33.481Z,999.31
2016-06-14T06:24:46.250Z,999.33
2016-06-14T06:25:33.534Z,999.33
2016-06-14T06:26:52.756Z,999.29
2016-06-14T06:27:33.587Z,999.28
2016-06-14T06:28:33.606Z,999.29
2016-06-14T06:29:33.624Z,999.32
2016-06-14T06:31:43.381Z,999.34
2016-06-14T06:32:43.415Z,999.31
2016-06-14T06:33:56.168Z,999.3
2016-06-14T06:34:56.202Z,999.34
2016-06-14T06:35:43.471Z,999.34
2016-06-14T06:36:43.505Z,999.34
2016-06-14T06:38:12.477Z,999.37
2016-06-14T06:39:12.511Z,999.36
2016-06-14T06:40:12.530Z,999.37
2016-06-14T06:41:12.549Z,999.4
2016-06-14T06:42:12.583Z,999.41
2016-06-14T06:43:12.602Z,999.37
2016-06-14T06:44:31.826Z,999.4
2016-06-14T06:45:12.654Z,999.44
2016-06-14T06:46:12.699Z,999.49
2016-06-14T06:47:12.773Z,999.43
2016-06-14T06:48:12.831Z,999.47
2016-06-14T06:49:12.904Z,999.54
2016-06-14T06:50:14.385Z,999.56
2016-06-14T06:51:13.020Z,999.62
2016-06-14T06:52:16.239Z,999.76
2016-06-14T06:53:13.085Z,999.78
2016-06-14T06:54:19.399Z,999.74
2016-06-14T06:55:13.182Z,999.54
2016-06-14T06:56:25.952Z,999.79
2016-06-14T06:57:13.249Z,999.52
2016-06-14T06:58:13.271Z,999.48
2016-06-14T06:59:22.929Z,999.41
2016-06-14T07:00:22.966Z,999.4
2016-06-14T07:01:23.002Z,999.41
2016-06-14T07:02:35.757Z,999.36
2016-06-14T07:03:23.058Z,999.35
2016-06-14T07:04:42.283Z,999.38
2016-06-14T07:05:42.302Z,999.4
2016-06-14T07:07:23.169Z,999.42
2016-06-14T07:08:23.204Z,999.4
2016-06-14T07:09:24.644Z,999.38
2016-06-14T07:10:42.460Z,999.39
2016-06-14T07:11:23.292Z,999.37
2016-06-14T07:12:23.311Z,999.38
2016-06-14T07:13:23.345Z,999.39
2016-06-14T07:14:36.146Z,999.38
2016-06-14T07:15:33.852Z,999.35
2016-06-14T07:16:34.027Z,999.32
2016-06-14T07:17:50.952Z,999.33
2016-06-14T07:18:38.236Z,999.3
2016-06-14T07:19:38.271Z,999.28
2016-06-14T07:20:38.258Z,999.32
2016-06-14T07:21:38.324Z,999.31
2016-06-14T07:22:39.718Z,999.27
2016-06-14T07:23:38.346Z,999.33
2016-06-14T07:24:54.240Z,999.3
2016-06-14T07:25:48.008Z,999.31
2016-06-14T07:26:48.042Z,999.37
2016-06-14T07:27:48.061Z,999.34
2016-06-14T07:28:48.080Z,999.36
2016-06-14T07:30:00.848Z,999.34
2016-06-14T07:30:48.351Z,999.32
2016-06-14T07:32:14.042Z,999.36
2016-06-14T07:32:57.999Z,999.39
2016-06-14T07:33:58.033Z,999.35
2016-06-14T07:35:10.785Z,999.39
2016-06-14T07:35:58.070Z,999.41
2016-06-14T07:37:17.308Z,999.38
2016-06-14T07:37:58.138Z,999.43
2016-06-14T07:38:58.157Z,999.41
2016-06-14T07:40:17.379Z,999.36
2016-06-14T07:41:58.370Z,999.31
2016-06-14T07:42:58.357Z,999.3
2016-06-14T07:43:58.376Z,999.27
2016-06-14T07:44:58.410Z,999.3
2016-06-14T07:45:58.430Z,999.32
2016-06-14T07:46:58.463Z,999.36
2016-06-14T07:47:58.435Z,999.37
2016-06-14T07:49:17.610Z,999.42
2016-06-14T07:49:58.442Z,999.43
2016-06-14T07:52:13.744Z,999.61
2016-06-14T07:53:13.779Z,999.55
2016-06-14T07:54:13.797Z,999.45
2016-06-14T07:55:13.832Z,999.47
2016-06-14T07:56:13.866Z,999.42
2016-06-14T07:57:26.623Z,999.43
2016-06-14T07:58:13.920Z,999.43
2016-06-14T07:59:13.922Z,999.47
2016-06-14T08:00:33.179Z,999.45
2016-06-14T08:01:13.991Z,999.47
2016-06-14T08:04:14.078Z,999.44
2016-06-14T08:05:14.113Z,999.46
2016-06-14T08:06:14.131Z,999.38
2016-06-14T08:07:14.164Z,999.4
2016-06-14T08:08:17.231Z,999.42
2016-06-14T08:09:26.956Z,999.37
2016-06-14T08:10:14.253Z,999.38
2016-06-14T08:11:33.478Z,999.38
2016-06-14T08:12:14.306Z,999.4
2016-06-14T08:13:40.015Z,999.4
2016-06-14T08:14:25.439Z,999.44
2016-06-14T08:15:25.459Z,999.44
2016-06-14T08:16:25.492Z,999.46
2016-06-14T08:17:26.933Z,999.44
2016-06-14T08:18:25.546Z,999.47
2016-06-14T08:19:25.580Z,999.49
2016-06-14T08:20:38.349Z,999.48
2016-06-14T08:21:25.696Z,999.45
2016-06-14T08:22:25.668Z,999.46
2016-06-14T08:23:25.702Z,999.47
2016-06-14T08:24:25.737Z,999.43
2016-06-14T08:25:25.755Z,999.48
2016-06-14T08:26:27.211Z,999.48
2016-06-14T08:27:25.823Z,999.46
2016-06-14T08:28:25.843Z,999.43
2016-06-14T08:29:25.877Z,999.45
2016-06-14T08:30:25.910Z,999.42
2016-06-14T08:31:25.930Z,999.45
2016-06-14T08:32:38.714Z,999.43
2016-06-14T08:33:38.732Z,999.44
2016-06-14T08:35:41.270Z,999.38
2016-06-14T08:37:06.976Z,999.38
2016-06-14T08:37:41.339Z,999.38
2016-06-14T08:38:41.451Z,999.38
2016-06-14T08:39:41.407Z,999.38
2016-06-14T08:40:41.535Z,999.36
2016-06-14T08:41:41.461Z,999.32
2016-06-14T08:42:41.495Z,999.34
2016-06-14T08:43:41.528Z,999.31
2016-06-14T08:44:41.564Z,999.33
2016-06-14T08:45:41.581Z,999.37
2016-06-14T08:46:41.726Z,999.33
2016-06-14T08:48:00.838Z,999.37
2016-06-14T08:48:41.654Z,999.29
2016-06-14T08:50:07.469Z,999.35
2016-06-14T08:50:41.723Z,999.38
2016-06-14T08:51:41.803Z,999.33
2016-06-14T08:52:41.791Z,999.38
2016-06-14T08:53:41.809Z,999.4
2016-06-14T08:54:41.829Z,999.39
2016-06-14T08:55:41.878Z,999.36
2016-06-14T08:56:41.898Z,999.35
2016-06-14T08:57:54.666Z,999.34
2016-06-14T08:58:54.699Z,999.32
2016-06-14T08:59:42.000Z,999.29
2016-06-14T09:00:42.019Z,999.28
2016-06-14T09:01:52.084Z,999.29
2016-06-14T09:02:52.103Z,999.23
2016-06-14T09:03:52.137Z,999.22
2016-06-14T09:04:52.172Z,999.17
2016-06-14T09:05:53.612Z,999.19
2016-06-14T09:07:17.912Z,999.18
2016-06-14T09:07:52.260Z,999.18
2016-06-14T09:08:52.294Z,999.18
2016-06-14T09:09:52.327Z,999.17
2016-06-14T09:10:52.346Z,999.15
2016-06-14T09:11:52.364Z,999.14
2016-06-14T09:12:52.400Z,999.19
2016-06-14T09:13:52.434Z,999.15
2016-06-14T09:15:05.203Z,999.08
2016-06-14T09:15:52.518Z,999.08
2016-06-14T09:16:52.552Z,999.05
2016-06-14T09:17:52.555Z,999.09
2016-06-14T09:18:52.574Z,999.1
2016-06-14T09:19:52.593Z,999.16
2016-06-14T09:20:52.628Z,999.11
2016-06-14T09:21:52.661Z,999.12
2016-06-14T09:22:52.696Z,999.1
2016-06-14T09:24:54.155Z,999.12
2016-06-14T09:25:52.768Z,999.12
2016-06-14T09:27:05.536Z,999.11
2016-06-14T09:27:52.821Z,999.12
2016-06-14T09:28:52.855Z,999.14
2016-06-14T09:30:12.077Z,999.14
2016-06-14T09:31:52.926Z,999.18
2016-06-14T09:32:52.945Z,999.17
2016-06-14T09:33:54.402Z,999.17
2016-06-14T09:34:53.107Z,999.18
2016-06-14T09:36:05.767Z,999.2
2016-06-14T09:36:53.114Z,999.24
2016-06-14T09:37:53.086Z,999.22
2016-06-14T09:38:56.261Z,999.27
2016-06-14T09:39:56.280Z,999.29
2016-06-14T09:40:56.297Z,999.25
2016-06-14T09:42:59.507Z,999.26
2016-06-14T09:43:59.510Z,999.27
2016-06-14T09:45:09.155Z,999.21
2016-06-14T09:46:09.719Z,999.24
2016-06-14T09:47:09.333Z,999.23
2016-06-14T09:48:09.241Z,999.23
2016-06-14T09:49:09.260Z,999.21
2016-06-14T09:50:09.295Z,999.21
2016-06-14T09:51:09.375Z,999.18
2016-06-14T09:52:09.410Z,999.17
2016-06-14T09:53:09.381Z,999.15
2016-06-14T09:54:09.416Z,999.19
2016-06-14T09:55:09.435Z,999.21
2016-06-14T09:56:22.344Z,999.21
2016-06-14T09:57:28.710Z,999.19
2016-06-14T09:58:09.522Z,999.17
2016-06-14T09:59:09.556Z,999.17
2016-06-14T10:00:09.591Z,999.13
2016-06-14T10:01:09.609Z,999.17
2016-06-14T10:02:09.644Z,999.16
2016-06-14T10:03:09.679Z,999.14
2016-06-14T10:04:09.712Z,999.1
2016-06-14T10:05:09.732Z,999.1
2016-06-14T10:06:11.172Z,999.1
2016-06-14T10:07:20.816Z,999.07
2016-06-14T10:08:20.850Z,999.09
2016-06-14T10:09:20.884Z,999.03
2016-06-14T10:10:20.903Z,999
2016-06-14T10:11:20.937Z,999.01
2016-06-14T10:12:20.956Z,998.96
2016-06-14T10:13:21.006Z,998.98
2016-06-14T10:14:33.762Z,998.97
2016-06-14T10:15:21.058Z,998.94
2016-06-14T10:16:21.093Z,998.93
2016-06-14T10:17:24.314Z,998.95
2016-06-14T10:18:24.334Z,998.94
2016-06-14T10:19:27.402Z,998.91
2016-06-14T10:20:24.402Z,998.94
2016-06-14T10:21:24.437Z,998.96
2016-06-14T10:22:24.471Z,998.93
2016-06-14T10:23:24.490Z,998.88
2016-06-14T10:24:24.524Z,998.86
2016-06-14T10:25:24.558Z,998.86
2016-06-14T10:26:24.592Z,998.87
2016-06-14T10:27:24.658Z,998.83
2016-06-14T10:28:24.646Z,998.82
2016-06-14T10:29:24.680Z,998.81
2016-06-14T10:30:24.714Z,998.76
2016-06-14T10:31:24.748Z,998.75
2016-06-14T10:32:37.505Z,998.76
2016-06-14T10:33:24.802Z,998.76
2016-06-14T10:34:24.836Z,998.76
2016-06-14T10:35:44.077Z,998.76
2016-06-14T10:36:24.905Z,998.76
2016-06-14T10:37:40.176Z,998.77
2016-06-14T10:38:40.211Z,998.78
2016-06-14T10:39:41.652Z,998.78
2016-06-14T10:40:40.263Z,998.76
2016-06-14T10:41:40.298Z,998.74
2016-06-14T10:42:59.519Z,998.75
2016-06-14T10:43:40.367Z,998.74
2016-06-14T10:44:40.386Z,998.73
2016-06-14T10:45:40.419Z,998.78
2016-06-14T10:46:40.470Z,998.77
2016-06-14T10:47:40.488Z,998.79
2016-06-14T10:48:40.506Z,998.81
2016-06-14T10:49:40.541Z,998.79
2016-06-14T10:50:40.576Z,998.77
2016-06-14T10:51:40.594Z,998.72
2016-06-14T10:52:40.629Z,998.67
2016-06-14T10:53:53.398Z,998.69
2016-06-14T10:54:40.697Z,998.69
2016-06-14T10:55:40.716Z,998.69
2016-06-14T10:56:59.954Z,998.67
2016-06-14T10:57:53.519Z,998.67
2016-06-14T10:58:40.803Z,998.66
2016-06-14T10:59:40.837Z,998.68
2016-06-14T11:00:40.872Z,998.69
2016-06-14T11:01:41.266Z,998.64
2016-06-14T11:02:40.925Z,998.66
2016-06-14T11:03:40.959Z,998.63
2016-06-14T11:04:40.994Z,998.6
2016-06-14T11:05:41.012Z,998.62
2016-06-14T11:06:41.047Z,998.67
2016-06-14T11:07:41.190Z,998.65
2016-06-14T11:08:41.099Z,998.68
2016-06-14T11:09:41.134Z,998.69
2016-06-14T11:10:41.168Z,998.73
2016-06-14T11:11:41.202Z,998.67
2016-06-14T11:12:41.236Z,998.66
2016-06-14T11:13:41.255Z,998.6
2016-06-14T11:14:41.290Z,998.6
2016-06-14T11:15:54.043Z,998.63
2016-06-14T11:16:41.420Z,998.6
2016-06-14T11:17:41.377Z,998.62
2016-06-14T11:18:44.443Z,998.6
2016-06-14T11:19:41.430Z,998.65
2016-06-14T11:20:41.466Z,998.66
2016-06-14T11:21:41.499Z,998.65
2016-06-14T11:22:54.268Z,998.6
2016-06-14T11:23:41.568Z,998.58
2016-06-14T11:24:41.602Z,998.57
2016-06-14T11:25:41.637Z,998.58
2016-06-14T11:26:41.655Z,998.53
2016-06-14T11:27:41.798Z,998.55
2016-06-14T11:28:41.724Z,998.52
2016-06-14T11:29:41.743Z,998.51
2016-06-14T11:30:41.777Z,998.49
2016-06-14T11:31:42.233Z,998.49
2016-06-14T11:32:44.877Z,998.5
2016-06-14T11:33:41.880Z,998.51
2016-06-14T11:34:41.914Z,998.53
2016-06-14T11:35:41.932Z,998.49
2016-06-14T11:36:42.077Z,998.49
2016-06-14T11:37:41.986Z,998.49
2016-06-14T11:38:42.114Z,998.49
2016-06-14T11:39:42.039Z,998.5
2016-06-14T11:40:54.807Z,998.52
2016-06-14T11:41:42.108Z,998.51
2016-06-14T11:42:42.142Z,998.53
2016-06-14T11:44:57.554Z,998.6
2016-06-14T11:45:57.526Z,998.65
2016-06-14T11:46:59.357Z,998.64
2016-06-14T11:48:10.610Z,998.68
2016-06-14T11:49:57.648Z,998.64
2016-06-14T11:50:57.698Z,998.64
2016-06-14T11:52:12.951Z,998.65
2016-06-14T11:53:12.970Z,998.61
2016-06-14T11:55:28.257Z,998.56
2016-06-14T11:56:28.291Z,998.64
2016-06-14T11:57:28.309Z,998.6
2016-06-14T11:58:29.750Z,998.62
2016-06-14T11:59:54.053Z,998.61
2016-06-14T12:00:57.322Z,998.58
2016-06-14T12:01:57.419Z,998.61
2016-06-14T12:03:10.126Z,998.58
2016-06-14T12:03:57.410Z,998.57
2016-06-14T12:05:23.116Z,998.61
2016-06-14T12:05:57.556Z,998.56
2016-06-14T12:06:57.496Z,998.55
2016-06-14T12:08:58.972Z,998.59
2016-06-14T12:09:57.569Z,998.6
2016-06-14T12:10:57.603Z,998.57
2016-06-14T12:11:57.637Z,998.58
2016-06-14T12:12:57.656Z,998.55
2016-06-14T12:13:57.674Z,998.59
2016-06-14T12:14:57.710Z,998.58
2016-06-14T12:15:57.743Z,998.59
2016-06-14T12:16:57.763Z,998.58
2016-06-14T12:17:57.796Z,998.59
2016-06-14T12:18:57.815Z,998.56
2016-06-14T12:19:57.833Z,998.56
2016-06-14T12:20:57.884Z,998.53
2016-06-14T12:22:00.918Z,998.55
2016-06-14T12:22:57.937Z,998.52
2016-06-14T12:24:23.626Z,998.52
2016-06-14T12:25:07.646Z,998.52
2016-06-14T12:26:07.681Z,998.53
2016-06-14T12:27:17.339Z,998.56
2016-06-14T12:28:17.358Z,998.56
2016-06-14T12:29:17.377Z,998.52
2016-06-14T12:30:17.411Z,998.58
2016-06-14T12:31:17.430Z,998.5
2016-06-14T12:32:17.464Z,998.53
2016-06-14T12:33:17.483Z,998.49
2016-06-14T12:34:30.346Z,998.5
2016-06-14T12:35:36.739Z,998.49
2016-06-14T12:36:20.711Z,998.52
2016-06-14T12:37:20.730Z,998.51
2016-06-14T12:38:23.921Z,998.56
2016-06-14T12:39:23.939Z,998.58
2016-06-14T12:40:23.958Z,998.61
2016-06-14T12:41:23.993Z,998.62
2016-06-14T12:42:24.026Z,998.64
2016-06-14T12:43:24.045Z,998.64
2016-06-14T12:44:24.080Z,998.65
2016-06-14T12:45:49.773Z,998.65
2016-06-14T12:46:33.742Z,998.69
2016-06-14T12:47:33.761Z,998.67
2016-06-14T12:48:36.826Z,998.66
2016-06-14T12:50:52.071Z,998.63
2016-06-14T12:51:49.073Z,998.6
2016-06-14T12:52:49.091Z,998.61
2016-06-14T12:53:49.126Z,998.64
2016-06-14T12:54:49.145Z,998.62
2016-06-14T12:55:49.164Z,998.58
2016-06-14T12:56:50.620Z,998.58
2016-06-14T12:57:49.232Z,998.56
2016-06-14T12:58:49.267Z,998.58
2016-06-14T12:59:49.285Z,998.54
2016-06-14T13:00:49.319Z,998.53
2016-06-14T13:01:49.338Z,998.55
2016-06-14T13:02:51.200Z,998.53
2016-06-14T13:03:49.422Z,998.58
2016-06-14T13:04:49.425Z,998.54
2016-06-14T13:05:49.459Z,998.6
2016-06-14T13:07:08.697Z,998.57
2016-06-14T13:07:49.529Z,998.57
2016-06-14T13:08:49.548Z,998.57
2016-06-14T13:10:02.457Z,998.54
2016-06-14T13:10:49.616Z,998.55
2016-06-14T13:12:59.294Z,998.56
2016-06-14T13:13:59.313Z,998.61
2016-06-14T13:15:16.066Z,998.58
2016-06-14T13:16:03.350Z,998.61